createdAt,value
2018-06-11T00:01:09.580Z,83.99
2018-06-11T00:03:42.142Z,84.36
2018-06-11T00:06:14.143Z,85.29
2018-06-11T00:08:46.555Z,85.85
2018-06-11T00:11:18.746Z,87.42
2018-06-11T00:13:50.772Z,89.29
2018-06-11T00:16:22.884Z,90.48
2018-06-11T00:18:54.662Z,90.29
2018-06-11T00:21:26.857Z,91.27
2018-06-11T00:23:58.865Z,91.69
2018-06-11T00:26:30.980Z,91.38
2018-06-11T00:29:02.496Z,92.65
2018-06-11T00:31:34.404Z,92.57
2018-06-11T00:34:06.432Z,92.62
2018-06-11T00:36:39.651Z,92.97
2018-06-11T00:39:12.905Z,92.44
2018-06-11T00:41:45.227Z,92.42
2018-06-11T00:44:16.561Z,93.66
2018-06-11T00:46:48.525Z,94.32
2018-06-11T00:49:20.379Z,93.26
2018-06-11T00:51:52.288Z,93.97
2018-06-11T00:54:24.196Z,95.21
2018-06-11T00:56:56.524Z,95.26
2018-06-11T01:03:03.189Z,94.21
2018-06-11T01:05:35.084Z,95.27
2018-06-11T01:08:07.231Z,94.75
2018-06-11T01:10:39.710Z,94.91
2018-06-11T01:13:11.963Z,94.25
2018-06-11T01:15:43.450Z,94.98
2018-06-11T01:18:15.554Z,94.32
2018-06-11T01:20:47.769Z,95.01
2018-06-11T01:23:19.851Z,94.61
2018-06-11T01:25:51.839Z,93.66
2018-06-11T01:28:23.863Z,92.75
2018-06-11T01:30:56.093Z,92.76
2018-06-11T01:33:27.895Z,94.88
2018-06-11T01:35:59.885Z,92.78
2018-06-11T01:38:32.102Z,92.48
2018-06-11T01:41:14.266Z,93.30
2018-06-11T01:43:51.407Z,93.60
2018-06-11T01:46:23.120Z,92.57
2018-06-11T01:52:31.937Z,93.63
2018-06-11T01:55:04.029Z,94.30
2018-06-11T01:57:36.094Z,94.86
2018-06-11T02:00:08.306Z,93.97
2018-06-11T02:02:40.818Z,93.82
2018-06-11T02:05:15.080Z,94.75
2018-06-11T02:07:47.170Z,94.11
2018-06-11T02:11:20.461Z,94.41
2018-06-11T02:13:53.050Z,94.30
2018-06-11T02:16:25.064Z,94.03
2018-06-11T02:18:57.372Z,94.18
2018-06-11T02:21:29.636Z,94.16
2018-06-11T02:24:01.650Z,93.55
2018-06-11T02:26:33.700Z,93.48
2018-06-11T02:29:05.830Z,93.89
2018-06-11T02:31:38.622Z,94.43
2018-06-11T02:34:10.222Z,94.51
2018-06-11T02:36:41.847Z,94.31
2018-06-11T02:39:14.230Z,94.58
2018-06-11T02:41:46.265Z,95.49
2018-06-11T02:44:18.648Z,94.94
2018-06-11T02:46:50.685Z,95.13
2018-06-11T02:49:22.761Z,94.46
2018-06-11T02:51:55.345Z,94.76
2018-06-11T02:54:27.702Z,94.50
2018-06-11T02:56:59.855Z,94.08
2018-06-11T02:59:31.811Z,92.65
2018-06-11T03:02:04.610Z,92.00
2018-06-11T03:04:36.949Z,92.24
2018-06-11T03:07:08.865Z,91.66
2018-06-11T03:09:41.433Z,91.59
2018-06-11T03:12:13.205Z,90.73
2018-06-11T03:14:45.096Z,90.36
2018-06-11T03:17:17.528Z,90.43
2018-06-11T03:19:49.892Z,89.38
2018-06-11T03:22:21.660Z,90.15
2018-06-11T03:24:53.347Z,90.39
2018-06-11T03:27:25.218Z,90.06
2018-06-11T03:29:56.477Z,90.15
2018-06-11T03:32:28.133Z,89.77
2018-06-11T03:35:00.081Z,88.44
2018-06-11T03:37:32.104Z,88.01
2018-06-11T03:40:04.107Z,86.82
2018-06-11T03:42:36.088Z,85.44
2018-06-11T03:45:08.394Z,86.24
2018-06-11T03:47:40.819Z,85.73
2018-06-11T03:50:14.724Z,84.99
2018-06-11T03:52:46.442Z,84.51
2018-06-11T03:55:18.646Z,84.26
2018-06-11T03:57:51.825Z,84.49
2018-06-11T04:00:23.850Z,85.02
2018-06-11T04:02:55.915Z,83.05
2018-06-11T04:05:27.825Z,83.10
2018-06-11T04:08:00.116Z,83.04
2018-06-11T04:10:32.179Z,83.54
2018-06-11T04:13:04.304Z,82.81
2018-06-11T04:15:36.235Z,82.84
2018-06-11T04:18:08.282Z,82.74
2018-06-11T04:20:41.061Z,80.51
2018-06-11T04:23:12.687Z,79.68
2018-06-11T04:25:44.461Z,80.09
2018-06-11T04:28:16.574Z,78.56
2018-06-11T04:30:48.475Z,78.74
2018-06-11T04:33:19.784Z,77.98
2018-06-11T04:35:51.775Z,77.60
2018-06-11T04:38:33.904Z,75.85
2018-06-11T04:41:10.917Z,76.30
2018-06-11T04:43:42.385Z,78.01
2018-06-11T04:46:14.242Z,74.03
2018-06-11T04:48:46.188Z,73.29
2018-06-11T04:51:19.008Z,74.64
2018-06-11T04:53:50.979Z,74.45
2018-06-11T04:56:22.984Z,71.67
2018-06-11T04:58:54.422Z,72.61
2018-06-11T05:01:26.386Z,72.29
2018-06-11T05:03:57.755Z,73.11
2018-06-11T05:06:29.625Z,73.36
2018-06-11T05:09:01.507Z,73.67
2018-06-11T05:11:33.794Z,72.90
2018-06-11T05:14:05.805Z,71.99
2018-06-11T05:16:37.526Z,70.89
2018-06-11T05:19:09.496Z,70.95
2018-06-11T05:21:41.748Z,70.91
2018-06-11T05:24:13.632Z,70.15
2018-06-11T05:26:52.459Z,69.37
2018-06-11T05:29:24.679Z,68.33
2018-06-11T05:31:56.601Z,69.88
2018-06-11T05:34:33.032Z,68.29
2018-06-11T05:37:06.030Z,67.21
2018-06-11T05:39:38.236Z,67.35
2018-06-11T05:42:10.177Z,64.74
2018-06-11T05:44:42.447Z,65.24
2018-06-11T05:47:14.450Z,65.13
2018-06-11T05:49:45.967Z,64.42
2018-06-11T05:52:17.769Z,65.62
2018-06-11T05:54:49.500Z,63.16
2018-06-11T05:57:21.484Z,63.25
2018-06-11T05:59:53.457Z,63.02
2018-06-11T06:02:26.158Z,60.15
2018-06-11T06:04:59.537Z,60.36
2018-06-11T06:07:32.432Z,57.68
2018-06-11T06:10:03.600Z,56.91
2018-06-11T06:12:35.545Z,54.71
2018-06-11T06:15:08.659Z,58.33
2018-06-11T06:17:40.924Z,56.85
2018-06-11T06:20:12.855Z,56.81
2018-06-11T06:22:45.246Z,55.70
2018-06-11T06:25:20.425Z,53.31
2018-06-11T06:27:51.855Z,53.76
2018-06-11T06:30:24.083Z,50.95
2018-06-11T06:32:56.252Z,50.89
2018-06-11T06:35:44.971Z,52.07
2018-06-11T06:38:21.711Z,51.15
2018-06-11T06:40:53.774Z,50.24
2018-06-11T06:43:25.743Z,46.73
2018-06-11T06:46:03.518Z,47.63
2018-06-11T06:48:38.665Z,47.50
2018-06-11T06:51:24.130Z,49.25
2018-06-11T06:53:57.648Z,47.35
2018-06-11T06:56:29.590Z,49.10
2018-06-11T06:59:08.674Z,49.51
2018-06-11T07:01:42.154Z,45.00
2018-06-11T07:04:14.043Z,47.58
2018-06-11T07:06:46.043Z,46.66
2018-06-11T07:09:17.337Z,44.67
2018-06-11T07:11:48.987Z,44.97
2018-06-11T07:14:20.943Z,44.71
2018-06-11T07:16:52.894Z,45.80
2018-06-11T07:19:24.650Z,46.14
2018-06-11T07:21:56.371Z,46.73
2018-06-11T07:24:28.259Z,43.60
2018-06-11T07:26:59.568Z,43.49
2018-06-11T07:29:31.304Z,43.57
2018-06-11T07:32:03.051Z,40.63
2018-06-11T07:34:34.912Z,42.82
2018-06-11T07:37:06.742Z,43.46
2018-06-11T07:39:39.112Z,40.87
2018-06-11T07:42:10.882Z,42.68
2018-06-11T07:44:42.771Z,40.89
2018-06-11T07:47:14.753Z,41.72
2018-06-11T07:49:46.651Z,39.98
2018-06-11T07:52:18.591Z,38.20
2018-06-11T07:54:50.448Z,38.62
2018-06-11T07:57:22.136Z,37.58
2018-06-11T07:59:54.842Z,38.06
2018-06-11T08:02:26.602Z,39.73
2018-06-11T08:04:58.577Z,39.50
2018-06-11T08:07:30.424Z,39.72
2018-06-11T08:10:02.172Z,38.20
2018-06-11T08:12:33.579Z,38.49
2018-06-11T08:15:05.392Z,41.36
2018-06-11T08:17:37.252Z,38.53
2018-06-11T08:20:09.277Z,37.41
2018-06-11T08:22:41.398Z,38.34
2018-06-11T08:25:13.307Z,35.96
2018-06-11T08:27:44.991Z,36.14
2018-06-11T08:30:16.184Z,35.86
2018-06-11T08:32:47.958Z,36.97
2018-06-11T08:35:19.780Z,37.06
2018-06-11T08:37:51.711Z,36.54
2018-06-11T08:40:23.501Z,36.24
2018-06-11T08:42:55.284Z,36.74
2018-06-11T08:45:27.326Z,35.71
2018-06-11T08:47:59.071Z,34.76
2018-06-11T08:50:30.347Z,35.23
2018-06-11T08:53:02.329Z,36.26
2018-06-11T08:55:34.174Z,35.00
2018-06-11T08:58:06.217Z,35.17
2018-06-11T09:00:40.345Z,35.88
2018-06-11T09:03:12.447Z,36.61
2018-06-11T09:05:45.026Z,38.11
2018-06-11T09:08:16.810Z,41.05
2018-06-11T09:10:48.606Z,36.74
2018-06-11T09:13:20.462Z,37.65
2018-06-11T09:15:52.279Z,37.90
2018-06-11T09:18:24.447Z,35.60
2018-06-11T09:20:56.260Z,35.12
2018-06-11T09:23:28.208Z,37.11
2018-06-11T09:25:59.888Z,38.69
2018-06-11T09:28:31.691Z,37.01
2018-06-11T09:31:04.809Z,35.71
2018-06-11T09:33:37.167Z,32.86
2018-06-11T09:36:10.371Z,35.99
2018-06-11T09:38:41.744Z,34.97
2018-06-11T09:41:12.988Z,36.22
2018-06-11T09:43:44.803Z,35.67
2018-06-11T09:46:16.592Z,36.96
2018-06-11T09:48:48.330Z,36.28
2018-06-11T09:51:20.376Z,36.55
2018-06-11T09:53:52.169Z,38.47
2018-06-11T09:56:24.427Z,38.38
2018-06-11T09:59:43.258Z,38.47
2018-06-11T10:02:16.056Z,35.63
2018-06-11T10:04:48.305Z,34.71
2018-06-11T10:07:20.119Z,37.49
2018-06-11T10:09:51.883Z,37.60
2018-06-11T10:12:23.664Z,38.14
2018-06-11T10:14:54.908Z,39.43
2018-06-11T10:17:26.180Z,34.42
2018-06-11T10:19:58.655Z,37.05
2018-06-11T10:22:30.540Z,35.03
2018-06-11T10:25:02.194Z,34.47
2018-06-11T10:27:34.141Z,34.25
2018-06-11T10:30:06.594Z,36.73
2018-06-11T10:32:38.648Z,36.32
2018-06-11T10:35:10.723Z,37.23
2018-06-11T10:37:43.683Z,34.57
2018-06-11T10:54:07.993Z,35.67
2018-06-11T10:56:41.007Z,36.04
2018-06-11T10:59:12.819Z,33.29
2018-06-11T11:01:44.220Z,33.25
2018-06-11T11:04:16.053Z,34.23
2018-06-11T11:06:48.038Z,36.09
2018-06-11T11:09:19.975Z,33.22
2018-06-11T11:11:51.997Z,35.10
2018-06-11T11:14:23.732Z,32.92
2018-06-11T11:16:55.925Z,36.55
2018-06-11T11:19:27.873Z,35.64
2018-06-11T11:22:00.134Z,34.83
2018-06-11T11:24:31.866Z,37.99
2018-06-11T11:27:03.783Z,37.93
2018-06-11T11:29:36.006Z,36.07
2018-06-11T11:35:49.886Z,37.24
2018-06-11T11:38:21.718Z,36.57
2018-06-11T11:40:53.813Z,35.59
2018-06-11T11:43:26.041Z,33.33
2018-06-11T11:45:58.263Z,34.70
2018-06-11T11:48:30.217Z,34.29
2018-06-11T11:51:02.314Z,36.70
2018-06-11T11:53:34.100Z,33.57
2018-06-11T11:56:05.938Z,32.80
2018-06-11T11:58:37.959Z,31.57
2018-06-11T12:01:09.825Z,31.50
2018-06-11T12:03:43.011Z,32.61
2018-06-11T12:06:15.222Z,31.45
2018-06-11T12:08:50.004Z,33.08
2018-06-11T12:11:24.316Z,34.42
2018-06-11T12:13:56.935Z,35.91
2018-06-11T12:16:30.891Z,35.50
2018-06-11T12:19:03.108Z,36.21
2018-06-11T12:21:35.016Z,36.00
2018-06-11T12:24:07.020Z,37.57
2018-06-11T12:26:38.962Z,36.88
2018-06-11T12:29:10.747Z,35.42
2018-06-11T12:31:42.986Z,34.64
2018-06-11T12:34:15.662Z,35.78
2018-06-11T12:36:47.582Z,37.17
2018-06-11T12:39:20.043Z,34.80
2018-06-11T12:41:52.108Z,36.60
2018-06-11T12:44:24.505Z,38.39
2018-06-11T12:46:56.595Z,36.32
2018-06-11T12:49:29.128Z,37.70
2018-06-11T12:52:01.722Z,37.54
2018-06-11T12:54:33.486Z,39.27
2018-06-11T12:57:04.736Z,41.70
2018-06-11T12:59:37.692Z,42.58
2018-06-11T13:09:10.230Z,41.54
2018-06-11T13:12:23.261Z,43.18
2018-06-11T13:14:54.667Z,40.66
2018-06-11T13:17:26.502Z,40.38
2018-06-11T13:19:59.094Z,41.24
2018-06-11T13:22:32.762Z,43.20
2018-06-11T13:25:05.034Z,45.74
2018-06-11T13:27:36.261Z,43.89
2018-06-11T13:30:08.218Z,42.88
2018-06-11T13:35:21.883Z,43.25
2018-06-11T13:37:54.577Z,43.10
2018-06-11T13:40:26.573Z,42.87
2018-06-11T13:42:59.381Z,41.37
2018-06-11T13:45:32.234Z,41.06
2018-06-11T13:48:04.056Z,41.90
2018-06-11T13:50:36.222Z,42.29
2018-06-11T13:53:07.958Z,44.96
2018-06-11T13:55:39.905Z,45.74
2018-06-11T13:58:11.906Z,44.26
2018-06-11T14:00:43.851Z,43.22
2018-06-11T14:03:15.617Z,44.08
2018-06-11T14:05:47.780Z,41.91
2018-06-11T14:08:19.646Z,41.95
2018-06-11T14:10:51.722Z,42.77
2018-06-11T14:13:23.703Z,43.56
2018-06-11T14:15:56.603Z,46.38
2018-06-11T14:18:28.339Z,47.64
2018-06-11T14:21:00.825Z,47.02
2018-06-11T14:23:32.755Z,49.04
2018-06-11T14:26:04.673Z,50.57
2018-06-11T14:28:36.822Z,49.79
2018-06-11T14:34:37.752Z,48.37
2018-06-11T14:37:09.671Z,50.35
2018-06-11T14:39:41.607Z,48.73
2018-06-11T14:42:13.546Z,50.64
2018-06-11T14:44:45.501Z,48.74
2018-06-11T14:47:17.752Z,50.37
2018-06-11T14:49:49.327Z,48.97
2018-06-11T14:52:22.514Z,49.68
2018-06-11T14:54:55.105Z,52.26
2018-06-11T14:57:28.225Z,53.49
2018-06-11T15:00:00.844Z,50.39
2018-06-11T15:02:33.047Z,53.35
2018-06-11T15:05:05.011Z,52.70
2018-06-11T15:07:36.900Z,53.04
2018-06-11T15:10:11.188Z,54.23
2018-06-11T15:12:43.156Z,53.61
2018-06-11T15:15:17.371Z,54.36
2018-06-11T15:17:49.384Z,54.32
2018-06-11T15:20:21.146Z,54.10
2018-06-11T15:22:52.264Z,54.76
2018-06-11T15:25:23.978Z,55.02
2018-06-11T15:27:56.073Z,55.46
2018-06-11T15:30:28.099Z,54.45
2018-06-11T15:33:01.085Z,56.41
2018-06-11T15:35:33.105Z,56.18
2018-06-11T15:38:05.143Z,55.54
2018-06-11T15:40:37.060Z,54.68
2018-06-11T15:43:08.565Z,54.70
2018-06-11T15:45:40.566Z,54.92
2018-06-11T15:48:12.632Z,54.70
2018-06-11T15:50:44.178Z,54.72
2018-06-11T15:53:27.554Z,55.62
2018-06-11T15:55:59.958Z,55.53
2018-06-11T15:58:36.090Z,53.94
2018-06-11T16:01:08.600Z,52.22
2018-06-11T16:03:41.635Z,53.69
2018-06-11T16:06:13.660Z,53.50
2018-06-11T16:08:45.680Z,52.37
2018-06-11T16:11:17.642Z,53.18
2018-06-11T16:13:49.694Z,51.11
2018-06-11T16:16:21.593Z,52.08
2018-06-11T16:18:53.630Z,51.58
2018-06-11T16:21:26.169Z,52.86
2018-06-11T16:23:58.691Z,52.67
2018-06-11T16:26:30.537Z,53.43
2018-06-11T16:29:02.335Z,52.85
2018-06-11T16:31:34.417Z,54.27
2018-06-11T16:34:06.484Z,53.28
2018-06-11T16:37:02.178Z,53.93
2018-06-11T16:39:58.541Z,53.54
2018-06-11T16:42:58.935Z,54.30
2018-06-11T16:45:35.352Z,54.67
2018-06-11T16:48:06.904Z,54.11
2018-06-11T16:50:38.821Z,55.43
2018-06-11T16:53:10.762Z,55.95
2018-06-11T16:55:42.100Z,56.79
2018-06-11T16:58:13.769Z,55.58
2018-06-11T17:00:45.498Z,55.63
2018-06-11T17:03:18.614Z,56.04
2018-06-11T17:05:51.088Z,56.29
2018-06-11T17:08:23.046Z,57.49
2018-06-11T17:10:55.006Z,57.14
2018-06-11T17:21:33.671Z,58.72
2018-06-11T17:27:29.528Z,61.78
2018-06-11T17:30:01.051Z,61.40
2018-06-11T17:32:33.129Z,61.97
2018-06-11T17:35:05.364Z,61.01
2018-06-11T17:37:37.287Z,61.73
2018-06-11T17:40:08.758Z,62.36
2018-06-11T17:42:39.805Z,60.61
2018-06-11T17:45:12.379Z,60.24
2018-06-11T17:47:44.518Z,60.67
2018-06-11T17:50:16.382Z,61.94
2018-06-11T17:52:48.106Z,61.75
2018-06-11T17:55:19.935Z,62.93
2018-06-11T17:57:52.446Z,62.17
2018-06-11T18:00:25.405Z,62.11
2018-06-11T18:02:56.631Z,60.71
2018-06-11T18:05:28.031Z,61.07
2018-06-11T18:08:00.245Z,60.18
2018-06-11T18:10:32.050Z,61.88
2018-06-11T18:13:04.366Z,60.73
2018-06-11T18:15:36.312Z,60.17
2018-06-11T18:18:07.693Z,61.17
2018-06-11T18:20:39.497Z,61.80
2018-06-11T18:23:11.359Z,62.79
2018-06-11T18:25:43.324Z,63.50
2018-06-11T18:28:15.937Z,63.43
2018-06-11T18:30:48.058Z,64.06
2018-06-11T18:33:19.900Z,63.74
2018-06-11T18:35:51.750Z,63.42
2018-06-11T18:38:23.692Z,62.76
2018-06-11T18:40:55.614Z,62.50
2018-06-11T18:43:27.490Z,62.13
2018-06-11T18:45:59.795Z,62.98
2018-06-11T18:48:31.778Z,62.48
2018-06-11T18:51:03.967Z,62.79
2018-06-11T18:53:35.938Z,62.14
2018-06-11T18:56:08.257Z,63.09
2018-06-11T18:58:39.528Z,63.22
2018-06-11T19:01:12.224Z,62.42
2018-06-11T19:03:44.358Z,62.22
2018-06-11T19:06:16.311Z,63.18
2018-06-11T19:08:48.113Z,63.48
2018-06-11T19:11:19.838Z,63.72
2018-06-11T19:13:52.394Z,63.74
2018-06-11T19:16:24.419Z,63.32
2018-06-11T19:18:56.313Z,63.99
2018-06-11T19:21:27.640Z,64.59
2018-06-11T19:23:59.660Z,64.75
2018-06-11T19:26:30.987Z,64.78
2018-06-11T19:29:03.317Z,64.54
2018-06-11T19:31:35.391Z,64.49
2018-06-11T19:34:07.364Z,64.77
2018-06-11T19:36:39.192Z,65.03
2018-06-11T19:39:11.188Z,65.33
2018-06-11T19:41:43.136Z,66.65
2018-06-11T19:44:14.937Z,67.09
2018-06-11T19:46:46.930Z,66.78
2018-06-11T19:49:18.824Z,66.84
2018-06-11T19:51:50.981Z,67.20
2018-06-11T19:54:22.840Z,68.65
2018-06-11T19:56:54.864Z,68.23
2018-06-11T19:59:27.087Z,68.67
2018-06-11T20:01:58.778Z,69.62
2018-06-11T20:04:31.833Z,69.87
2018-06-11T20:07:04.061Z,69.78
2018-06-11T20:09:36.910Z,70.86
2018-06-11T20:12:09.125Z,71.35
2018-06-11T20:14:41.360Z,71.26
2018-06-11T20:17:13.787Z,71.96
2018-06-11T20:19:45.999Z,72.62
2018-06-11T20:22:18.075Z,72.96
2018-06-11T20:24:50.591Z,72.09
2018-06-11T20:27:22.643Z,72.22
2018-06-11T20:29:55.639Z,72.24
2018-06-11T20:32:27.650Z,72.88
2018-06-11T20:34:59.854Z,72.57
2018-06-11T20:37:32.113Z,71.22
2018-06-11T20:40:03.806Z,70.10
2018-06-11T20:42:35.017Z,70.51
2018-06-11T20:45:07.438Z,70.59
2018-06-11T20:47:40.252Z,71.65
2018-06-11T20:50:12.614Z,71.38
2018-06-11T20:52:48.548Z,70.26
2018-06-11T20:55:23.615Z,71.60
2018-06-11T20:57:55.705Z,74.37
2018-06-11T21:00:27.955Z,73.52
2018-06-11T21:03:00.808Z,74.66
2018-06-11T21:05:32.982Z,74.35
2018-06-11T21:08:05.159Z,71.50
2018-06-11T21:10:39.565Z,70.67
2018-06-11T21:13:11.678Z,67.87
2018-06-11T21:15:43.390Z,71.49
2018-06-11T21:18:14.950Z,69.80
2018-06-11T21:20:46.952Z,69.66
2018-06-11T21:23:18.992Z,70.52
2018-06-11T21:25:51.023Z,71.15
2018-06-11T21:28:27.984Z,73.19
2018-06-11T21:31:02.847Z,73.74
2018-06-11T21:33:35.492Z,73.64
2018-06-11T21:39:28.986Z,75.04
2018-06-11T21:42:01.495Z,73.07
2018-06-11T21:44:33.390Z,75.11
2018-06-11T21:47:21.374Z,74.32
2018-06-11T21:49:53.276Z,72.24
2018-06-11T21:52:25.083Z,71.49
2018-06-11T21:54:56.590Z,72.08
2018-06-11T21:57:29.235Z,73.03
2018-06-11T22:00:01.485Z,73.57
2018-06-11T22:02:33.378Z,73.65
2018-06-11T22:05:06.401Z,74.68
2018-06-11T22:07:37.877Z,74.67
2018-06-11T22:10:13.465Z,74.25
2018-06-11T22:12:47.148Z,74.06
2018-06-11T22:15:22.749Z,74.93
2018-06-11T22:17:54.754Z,73.75
2018-06-11T22:20:26.736Z,73.25
2018-06-11T22:22:58.845Z,73.53
2018-06-11T22:25:30.843Z,72.27
2018-06-11T22:28:04.144Z,72.22
2018-06-11T22:30:36.389Z,71.88
2018-06-11T22:33:08.234Z,70.97
2018-06-11T22:35:40.183Z,71.16
2018-06-11T22:38:12.044Z,70.64
2018-06-11T22:40:44.124Z,70.53
2018-06-11T22:43:16.422Z,70.24
2018-06-11T22:45:48.686Z,68.54
2018-06-11T22:48:21.961Z,68.55
2018-06-11T22:50:55.612Z,68.71
2018-06-11T22:53:27.553Z,68.54
2018-06-11T22:56:01.230Z,68.79
2018-06-11T22:58:33.267Z,68.35
2018-06-11T23:01:05.257Z,68.93
2018-06-11T23:03:37.531Z,68.79
2018-06-11T23:06:09.556Z,69.20
2018-06-11T23:08:41.479Z,69.50
2018-06-11T23:11:13.430Z,73.32
2018-06-11T23:13:45.669Z,77.72
2018-06-11T23:16:17.675Z,80.25
2018-06-11T23:18:49.867Z,79.27
2018-06-11T23:21:21.108Z,78.12
2018-06-11T23:23:52.845Z,76.64
2018-06-11T23:26:24.718Z,77.53
2018-06-11T23:28:56.679Z,76.61
2018-06-11T23:31:28.521Z,75.89
2018-06-11T23:34:01.099Z,76.01
2018-06-11T23:36:33.107Z,75.60
2018-06-11T23:39:05.052Z,75.31
2018-06-11T23:41:36.971Z,75.15
2018-06-11T23:44:08.830Z,75.56
2018-06-11T23:46:40.782Z,74.89
2018-06-11T23:49:12.978Z,75.07
2018-06-11T23:51:56.261Z,75.94
2018-06-11T23:54:28.827Z,76.38
2018-06-11T23:57:02.128Z,76.48
2018-06-11T23:59:34.721Z,75.79
